sensor_id;sensor_type;location;lat;lon;timestamp;P1;durP1;ratioP1;P2;durP2;ratioP2
26750;SDS011;14345;48.272;25.926;2023-07-08T00:00:17;3.72;;;2.10;;
26750;SDS011;14345;48.272;25.926;2023-07-08T00:02:44;3.92;;;2.05;;
26750;SDS011;14345;48.272;25.926;2023-07-08T00:05:11;5.20;;;2.10;;
26750;SDS011;14345;48.272;25.926;2023-07-08T00:07:37;3.95;;;2.17;;
26750;SDS011;14345;48.272;25.926;2023-07-08T00:10:22;2.72;;;2.10;;
26750;SDS011;14345;48.272;25.926;2023-07-08T00:12:50;4.47;;;2.20;;
26750;SDS011;14345;48.272;25.926;2023-07-08T00:15:16;6.15;;;2.10;;
26750;SDS011;14345;48.272;25.926;2023-07-08T00:17:42;2.70;;;2.10;;
26750;SDS011;14345;48.272;25.926;2023-07-08T00:20:16;2.25;;;1.73;;
26750;SDS011;14345;48.272;25.926;2023-07-08T00:22:43;2.60;;;1.65;;
26750;SDS011;14345;48.272;25.926;2023-07-08T00:25:11;4.05;;;2.00;;
26750;SDS011;14345;48.272;25.926;2023-07-08T00:27:37;2.92;;;1.95;;
26750;SDS011;14345;48.272;25.926;2023-07-08T00:30:10;2.28;;;1.90;;
26750;SDS011;14345;48.272;25.926;2023-07-08T00:32:39;5.30;;;2.00;;
26750;SDS011;14345;48.272;25.926;2023-07-08T00:35:06;2.72;;;1.90;;
26750;SDS011;14345;48.272;25.926;2023-07-08T00:37:32;2.53;;;1.75;;
26750;SDS011;14345;48.272;25.926;2023-07-08T00:39:58;2.30;;;1.70;;
26750;SDS011;14345;48.272;25.926;2023-07-08T00:42:24;4.13;;;2.10;;
26750;SDS011;14345;48.272;25.926;2023-07-08T00:44:51;3.38;;;2.20;;
26750;SDS011;14345;48.272;25.926;2023-07-08T00:47:17;3.60;;;1.92;;
26750;SDS011;14345;48.272;25.926;2023-07-08T00:49:57;10.82;;;1.95;;
26750;SDS011;14345;48.272;25.926;2023-07-08T00:52:24;2.85;;;1.90;;
26750;SDS011;14345;48.272;25.926;2023-07-08T00:54:52;2.38;;;1.80;;
26750;SDS011;14345;48.272;25.926;2023-07-08T00:57:18;2.95;;;1.95;;
26750;SDS011;14345;48.272;25.926;2023-07-08T00:59:55;5.10;;;1.80;;
26750;SDS011;14345;48.272;25.926;2023-07-08T01:02:23;4.57;;;1.70;;
26750;SDS011;14345;48.272;25.926;2023-07-08T01:05:01;3.38;;;1.88;;
26750;SDS011;14345;48.272;25.926;2023-07-08T01:07:29;5.68;;;2.20;;
26750;SDS011;14345;48.272;25.926;2023-07-08T01:10:02;2.50;;;1.80;;
26750;SDS011;14345;48.272;25.926;2023-07-08T01:12:30;12.07;;;2.10;;
26750;SDS011;14345;48.272;25.926;2023-07-08T01:14:58;2.60;;;1.50;;
26750;SDS011;14345;48.272;25.926;2023-07-08T01:17:27;3.83;;;1.83;;
26750;SDS011;14345;48.272;25.926;2023-07-08T01:19:57;3.63;;;1.98;;
26750;SDS011;14345;48.272;25.926;2023-07-08T01:22:23;3.50;;;1.85;;
26750;SDS011;14345;48.272;25.926;2023-07-08T01:24:49;3.05;;;1.73;;
26750;SDS011;14345;48.272;25.926;2023-07-08T01:27:16;4.25;;;2.35;;
26750;SDS011;14345;48.272;25.926;2023-07-08T01:29:43;5.95;;;2.10;;
26750;SDS011;14345;48.272;25.926;2023-07-08T01:32:11;6.80;;;2.22;;
26750;SDS011;14345;48.272;25.926;2023-07-08T01:34:39;3.17;;;1.90;;
26750;SDS011;14345;48.272;25.926;2023-07-08T01:37:05;2.42;;;1.73;;
26750;SDS011;14345;48.272;25.926;2023-07-08T01:39:32;3.78;;;2.30;;
26750;SDS011;14345;48.272;25.926;2023-07-08T01:41:58;3.95;;;2.28;;
26750;SDS011;14345;48.272;25.926;2023-07-08T01:46:53;3.72;;;2.38;;
26750;SDS011;14345;48.272;25.926;2023-07-08T01:49:20;2.55;;;1.92;;
26750;SDS011;14345;48.272;25.926;2023-07-08T01:51:47;2.58;;;2.35;;
26750;SDS011;14345;48.272;25.926;2023-07-08T01:54:14;5.13;;;2.15;;
26750;SDS011;14345;48.272;25.926;2023-07-08T01:56:40;4.70;;;2.20;;
26750;SDS011;14345;48.272;25.926;2023-07-08T01:59:06;2.65;;;2.10;;
26750;SDS011;14345;48.272;25.926;2023-07-08T02:01:32;2.13;;;1.85;;
26750;SDS011;14345;48.272;25.926;2023-07-08T02:03:58;3.50;;;2.38;;
26750;SDS011;14345;48.272;25.926;2023-07-08T02:06:24;3.55;;;2.00;;
26750;SDS011;14345;48.272;25.926;2023-07-08T02:08:50;3.80;;;2.40;;
26750;SDS011;14345;48.272;25.926;2023-07-08T02:11:16;4.03;;;2.00;;
26750;SDS011;14345;48.272;25.926;2023-07-08T02:13:42;4.18;;;2.10;;
26750;SDS011;14345;48.272;25.926;2023-07-08T02:16:08;3.13;;;1.83;;
26750;SDS011;14345;48.272;25.926;2023-07-08T02:18:34;3.47;;;2.10;;
26750;SDS011;14345;48.272;25.926;2023-07-08T02:21:00;3.40;;;2.20;;
26750;SDS011;14345;48.272;25.926;2023-07-08T02:23:26;3.92;;;2.38;;
26750;SDS011;14345;48.272;25.926;2023-07-08T02:25:53;2.83;;;2.38;;
26750;SDS011;14345;48.272;25.926;2023-07-08T02:28:19;5.82;;;2.50;;
26750;SDS011;14345;48.272;25.926;2023-07-08T02:30:45;2.25;;;2.00;;
26750;SDS011;14345;48.272;25.926;2023-07-08T02:33:11;2.90;;;2.00;;
26750;SDS011;14345;48.272;25.926;2023-07-08T02:35:38;4.72;;;2.28;;
26750;SDS011;14345;48.272;25.926;2023-07-08T02:38:04;7.00;;;2.30;;
26750;SDS011;14345;48.272;25.926;2023-07-08T02:40:30;5.75;;;2.30;;
26750;SDS011;14345;48.272;25.926;2023-07-08T02:42:56;3.13;;;2.33;;
26750;SDS011;14345;48.272;25.926;2023-07-08T02:45:22;2.47;;;1.92;;
26750;SDS011;14345;48.272;25.926;2023-07-08T02:47:48;5.15;;;2.25;;
26750;SDS011;14345;48.272;25.926;2023-07-08T02:50:14;3.78;;;2.28;;
26750;SDS011;14345;48.272;25.926;2023-07-08T02:52:42;2.40;;;2.20;;
26750;SDS011;14345;48.272;25.926;2023-07-08T02:55:08;7.75;;;2.83;;
26750;SDS011;14345;48.272;25.926;2023-07-08T02:57:34;6.90;;;2.00;;
26750;SDS011;14345;48.272;25.926;2023-07-08T03:00:00;4.03;;;2.70;;
26750;SDS011;14345;48.272;25.926;2023-07-08T03:02:26;2.83;;;2.28;;
26750;SDS011;14345;48.272;25.926;2023-07-08T03:04:52;3.78;;;2.15;;
26750;SDS011;14345;48.272;25.926;2023-07-08T03:07:19;5.35;;;2.38;;
26750;SDS011;14345;48.272;25.926;2023-07-08T03:09:45;4.57;;;2.00;;
26750;SDS011;14345;48.272;25.926;2023-07-08T03:12:11;2.70;;;2.25;;
26750;SDS011;14345;48.272;25.926;2023-07-08T03:14:37;9.15;;;2.30;;
26750;SDS011;14345;48.272;25.926;2023-07-08T03:17:03;4.78;;;2.22;;
26750;SDS011;14345;48.272;25.926;2023-07-08T03:19:30;6.70;;;2.03;;
26750;SDS011;14345;48.272;25.926;2023-07-08T03:21:56;3.10;;;2.20;;
26750;SDS011;14345;48.272;25.926;2023-07-08T03:24:22;3.72;;;2.38;;
26750;SDS011;14345;48.272;25.926;2023-07-08T03:26:48;3.05;;;2.08;;
26750;SDS011;14345;48.272;25.926;2023-07-08T03:29:19;3.13;;;2.17;;
26750;SDS011;14345;48.272;25.926;2023-07-08T03:31:45;5.00;;;2.22;;
26750;SDS011;14345;48.272;25.926;2023-07-08T03:34:11;4.13;;;1.90;;
26750;SDS011;14345;48.272;25.926;2023-07-08T03:36:48;4.35;;;2.30;;
26750;SDS011;14345;48.272;25.926;2023-07-08T03:39:18;2.67;;;2.10;;
26750;SDS011;14345;48.272;25.926;2023-07-08T03:41:44;3.30;;;2.30;;
26750;SDS011;14345;48.272;25.926;2023-07-08T03:44:10;4.15;;;1.95;;
26750;SDS011;14345;48.272;25.926;2023-07-08T03:46:37;3.20;;;2.03;;
26750;SDS011;14345;48.272;25.926;2023-07-08T03:49:04;2.25;;;2.05;;
26750;SDS011;14345;48.272;25.926;2023-07-08T03:51:31;5.78;;;2.20;;
26750;SDS011;14345;48.272;25.926;2023-07-08T03:53:58;5.32;;;3.50;;
26750;SDS011;14345;48.272;25.926;2023-07-08T03:56:24;7.43;;;2.10;;
26750;SDS011;14345;48.272;25.926;2023-07-08T03:58:50;2.83;;;2.03;;
26750;SDS011;14345;48.272;25.926;2023-07-08T04:01:18;4.68;;;2.75;;
26750;SDS011;14345;48.272;25.926;2023-07-08T04:03:45;5.57;;;2.30;;
26750;SDS011;14345;48.272;25.926;2023-07-08T04:06:12;3.42;;;2.30;;
26750;SDS011;14345;48.272;25.926;2023-07-08T04:08:38;3.97;;;2.60;;
26750;SDS011;14345;48.272;25.926;2023-07-08T04:11:04;3.05;;;1.95;;
26750;SDS011;14345;48.272;25.926;2023-07-08T04:13:31;4.07;;;2.45;;
26750;SDS011;14345;48.272;25.926;2023-07-08T04:15:59;5.43;;;2.40;;
26750;SDS011;14345;48.272;25.926;2023-07-08T04:18:25;6.05;;;2.50;;
26750;SDS011;14345;48.272;25.926;2023-07-08T04:20:51;7.18;;;2.60;;
26750;SDS011;14345;48.272;25.926;2023-07-08T04:23:21;4.43;;;2.65;;
26750;SDS011;14345;48.272;25.926;2023-07-08T04:25:50;4.95;;;2.22;;
26750;SDS011;14345;48.272;25.926;2023-07-08T04:28:17;5.45;;;2.83;;
26750;SDS011;14345;48.272;25.926;2023-07-08T04:30:43;5.70;;;2.65;;
26750;SDS011;14345;48.272;25.926;2023-07-08T04:33:11;4.57;;;2.45;;
26750;SDS011;14345;48.272;25.926;2023-07-08T04:35:37;5.55;;;2.40;;
26750;SDS011;14345;48.272;25.926;2023-07-08T04:38:04;5.85;;;2.60;;
26750;SDS011;14345;48.272;25.926;2023-07-08T04:40:34;7.80;;;2.58;;
26750;SDS011;14345;48.272;25.926;2023-07-08T04:43:08;5.03;;;2.40;;
26750;SDS011;14345;48.272;25.926;2023-07-08T04:45:40;4.10;;;2.10;;
26750;SDS011;14345;48.272;25.926;2023-07-08T04:48:07;3.22;;;2.10;;
26750;SDS011;14345;48.272;25.926;2023-07-08T04:50:39;3.35;;;2.30;;
26750;SDS011;14345;48.272;25.926;2023-07-08T04:53:05;4.53;;;2.67;;
26750;SDS011;14345;48.272;25.926;2023-07-08T04:55:31;4.38;;;2.50;;
26750;SDS011;14345;48.272;25.926;2023-07-08T04:57:57;4.60;;;2.55;;
26750;SDS011;14345;48.272;25.926;2023-07-08T05:00:23;4.95;;;2.25;;
26750;SDS011;14345;48.272;25.926;2023-07-08T05:02:49;3.17;;;2.17;;
26750;SDS011;14345;48.272;25.926;2023-07-08T05:05:15;5.45;;;2.42;;
26750;SDS011;14345;48.272;25.926;2023-07-08T05:07:41;4.70;;;2.17;;
26750;SDS011;14345;48.272;25.926;2023-07-08T05:10:08;4.68;;;2.20;;
26750;SDS011;14345;48.272;25.926;2023-07-08T05:12:34;4.65;;;2.35;;
26750;SDS011;14345;48.272;25.926;2023-07-08T05:15:01;4.15;;;2.47;;
26750;SDS011;14345;48.272;25.926;2023-07-08T05:17:27;7.05;;;2.25;;
26750;SDS011;14345;48.272;25.926;2023-07-08T05:19:53;4.78;;;2.30;;
26750;SDS011;14345;48.272;25.926;2023-07-08T05:22:19;3.67;;;2.50;;
26750;SDS011;14345;48.272;25.926;2023-07-08T05:24:50;4.05;;;2.17;;
26750;SDS011;14345;48.272;25.926;2023-07-08T05:27:17;5.20;;;2.40;;
26750;SDS011;14345;48.272;25.926;2023-07-08T05:29:43;3.60;;;2.65;;
26750;SDS011;14345;48.272;25.926;2023-07-08T05:32:09;3.90;;;2.72;;
26750;SDS011;14345;48.272;25.926;2023-07-08T05:34:35;4.03;;;2.47;;
26750;SDS011;14345;48.272;25.926;2023-07-08T05:37:01;2.75;;;2.08;;
26750;SDS011;14345;48.272;25.926;2023-07-08T05:39:29;3.15;;;2.20;;
26750;SDS011;14345;48.272;25.926;2023-07-08T05:41:55;6.20;;;2.65;;
26750;SDS011;14345;48.272;25.926;2023-07-08T05:44:21;5.72;;;2.67;;
26750;SDS011;14345;48.272;25.926;2023-07-08T05:46:47;6.63;;;2.63;;
26750;SDS011;14345;48.272;25.926;2023-07-08T05:49:13;3.58;;;2.53;;
26750;SDS011;14345;48.272;25.926;2023-07-08T05:51:39;5.88;;;2.42;;
26750;SDS011;14345;48.272;25.926;2023-07-08T05:54:05;5.32;;;2.58;;
26750;SDS011;14345;48.272;25.926;2023-07-08T05:56:31;2.92;;;2.33;;
26750;SDS011;14345;48.272;25.926;2023-07-08T05:58:57;3.95;;;2.50;;
26750;SDS011;14345;48.272;25.926;2023-07-08T06:01:23;5.35;;;2.50;;
26750;SDS011;14345;48.272;25.926;2023-07-08T06:03:49;3.97;;;2.30;;
26750;SDS011;14345;48.272;25.926;2023-07-08T06:06:16;3.17;;;2.10;;
26750;SDS011;14345;48.272;25.926;2023-07-08T06:08:42;3.92;;;2.40;;
26750;SDS011;14345;48.272;25.926;2023-07-08T06:11:08;5.38;;;2.78;;
26750;SDS011;14345;48.272;25.926;2023-07-08T06:13:34;5.47;;;2.22;;
26750;SDS011;14345;48.272;25.926;2023-07-08T06:16:00;5.03;;;2.30;;
26750;SDS011;14345;48.272;25.926;2023-07-08T06:18:26;7.20;;;2.50;;
26750;SDS011;14345;48.272;25.926;2023-07-08T06:20:56;4.18;;;2.75;;
26750;SDS011;14345;48.272;25.926;2023-07-08T06:23:22;4.07;;;2.33;;
26750;SDS011;14345;48.272;25.926;2023-07-08T06:25:48;6.03;;;2.65;;
26750;SDS011;14345;48.272;25.926;2023-07-08T06:28:14;6.15;;;2.60;;
26750;SDS011;14345;48.272;25.926;2023-07-08T06:30:40;7.05;;;2.80;;
26750;SDS011;14345;48.272;25.926;2023-07-08T06:33:06;5.97;;;2.88;;
26750;SDS011;14345;48.272;25.926;2023-07-08T06:35:32;3.28;;;2.38;;
26750;SDS011;14345;48.272;25.926;2023-07-08T06:37:58;6.40;;;2.63;;
26750;SDS011;14345;48.272;25.926;2023-07-08T06:40:24;5.47;;;2.38;;
26750;SDS011;14345;48.272;25.926;2023-07-08T06:42:50;4.90;;;2.40;;
26750;SDS011;14345;48.272;25.926;2023-07-08T06:45:16;5.43;;;2.55;;
26750;SDS011;14345;48.272;25.926;2023-07-08T06:47:42;2.50;;;2.08;;
26750;SDS011;14345;48.272;25.926;2023-07-08T06:50:09;3.25;;;2.10;;
26750;SDS011;14345;48.272;25.926;2023-07-08T06:52:35;3.33;;;2.08;;
26750;SDS011;14345;48.272;25.926;2023-07-08T06:55:03;3.28;;;2.33;;
26750;SDS011;14345;48.272;25.926;2023-07-08T06:57:29;3.13;;;2.28;;
26750;SDS011;14345;48.272;25.926;2023-07-08T06:59:55;4.63;;;2.22;;
26750;SDS011;14345;48.272;25.926;2023-07-08T07:02:21;4.30;;;2.60;;
26750;SDS011;14345;48.272;25.926;2023-07-08T07:04:47;8.30;;;2.50;;
26750;SDS011;14345;48.272;25.926;2023-07-08T07:07:13;5.18;;;2.10;;
26750;SDS011;14345;48.272;25.926;2023-07-08T07:09:39;4.93;;;2.90;;
26750;SDS011;14345;48.272;25.926;2023-07-08T07:12:05;7.90;;;2.85;;
26750;SDS011;14345;48.272;25.926;2023-07-08T07:14:32;5.95;;;2.72;;
26750;SDS011;14345;48.272;25.926;2023-07-08T07:16:58;5.07;;;2.67;;
26750;SDS011;14345;48.272;25.926;2023-07-08T07:19:24;4.38;;;2.45;;
26750;SDS011;14345;48.272;25.926;2023-07-08T07:21:50;3.38;;;2.40;;
26750;SDS011;14345;48.272;25.926;2023-07-08T07:24:16;2.58;;;2.35;;
26750;SDS011;14345;48.272;25.926;2023-07-08T07:26:42;3.70;;;2.70;;
26750;SDS011;14345;48.272;25.926;2023-07-08T07:29:08;3.28;;;2.90;;
26750;SDS011;14345;48.272;25.926;2023-07-08T07:31:34;3.55;;;2.80;;
26750;SDS011;14345;48.272;25.926;2023-07-08T07:34:00;5.35;;;3.05;;
26750;SDS011;14345;48.272;25.926;2023-07-08T07:36:27;6.80;;;2.85;;
26750;SDS011;14345;48.272;25.926;2023-07-08T07:38:53;4.15;;;2.42;;
26750;SDS011;14345;48.272;25.926;2023-07-08T07:41:19;3.33;;;2.60;;
26750;SDS011;14345;48.272;25.926;2023-07-08T07:43:45;4.20;;;3.10;;
26750;SDS011;14345;48.272;25.926;2023-07-08T07:46:12;4.70;;;2.50;;
26750;SDS011;14345;48.272;25.926;2023-07-08T07:48:38;3.92;;;2.63;;
26750;SDS011;14345;48.272;25.926;2023-07-08T07:51:05;5.55;;;3.00;;
26750;SDS011;14345;48.272;25.926;2023-07-08T07:53:35;2.70;;;2.40;;
26750;SDS011;14345;48.272;25.926;2023-07-08T07:56:01;4.97;;;2.28;;
26750;SDS011;14345;48.272;25.926;2023-07-08T07:58:28;6.78;;;2.67;;
26750;SDS011;14345;48.272;25.926;2023-07-08T08:00:55;4.55;;;2.53;;
26750;SDS011;14345;48.272;25.926;2023-07-08T08:03:21;6.25;;;2.20;;
26750;SDS011;14345;48.272;25.926;2023-07-08T08:05:47;4.47;;;2.90;;
26750;SDS011;14345;48.272;25.926;2023-07-08T08:08:13;4.70;;;3.08;;
26750;SDS011;14345;48.272;25.926;2023-07-08T08:10:39;4.28;;;2.50;;
26750;SDS011;14345;48.272;25.926;2023-07-08T08:13:05;4.35;;;2.60;;
26750;SDS011;14345;48.272;25.926;2023-07-08T08:15:32;6.55;;;3.22;;
26750;SDS011;14345;48.272;25.926;2023-07-08T08:17:58;4.93;;;2.63;;
26750;SDS011;14345;48.272;25.926;2023-07-08T08:20:24;3.55;;;2.35;;
26750;SDS011;14345;48.272;25.926;2023-07-08T08:22:51;2.72;;;1.92;;
26750;SDS011;14345;48.272;25.926;2023-07-08T08:25:18;4.38;;;2.20;;
26750;SDS011;14345;48.272;25.926;2023-07-08T08:27:44;2.40;;;2.05;;
26750;SDS011;14345;48.272;25.926;2023-07-08T08:30:11;5.90;;;2.50;;
26750;SDS011;14345;48.272;25.926;2023-07-08T08:32:37;3.75;;;2.33;;
26750;SDS011;14345;48.272;25.926;2023-07-08T08:35:03;4.88;;;2.50;;
26750;SDS011;14345;48.272;25.926;2023-07-08T08:37:30;3.65;;;1.98;;
26750;SDS011;14345;48.272;25.926;2023-07-08T08:39:56;2.17;;;1.90;;
26750;SDS011;14345;48.272;25.926;2023-07-08T08:42:30;4.47;;;2.20;;
26750;SDS011;14345;48.272;25.926;2023-07-08T08:44:58;4.00;;;2.05;;
26750;SDS011;14345;48.272;25.926;2023-07-08T08:47:30;4.18;;;2.15;;
26750;SDS011;14345;48.272;25.926;2023-07-08T08:50:00;4.35;;;2.38;;
26750;SDS011;14345;48.272;25.926;2023-07-08T08:52:27;2.05;;;1.80;;
26750;SDS011;14345;48.272;25.926;2023-07-08T08:54:53;5.00;;;1.95;;
26750;SDS011;14345;48.272;25.926;2023-07-08T09:00:00;3.80;;;2.08;;
26750;SDS011;14345;48.272;25.926;2023-07-08T09:02:34;4.88;;;1.95;;
26750;SDS011;14345;48.272;25.926;2023-07-08T09:05:03;3.50;;;2.08;;
26750;SDS011;14345;48.272;25.926;2023-07-08T09:07:30;3.78;;;1.75;;
26750;SDS011;14345;48.272;25.926;2023-07-08T09:10:04;4.22;;;1.88;;
26750;SDS011;14345;48.272;25.926;2023-07-08T09:12:33;3.70;;;2.08;;
26750;SDS011;14345;48.272;25.926;2023-07-08T09:15:00;3.88;;;1.90;;
26750;SDS011;14345;48.272;25.926;2023-07-08T09:17:30;2.15;;;1.92;;
26750;SDS011;14345;48.272;25.926;2023-07-08T09:25:03;2.97;;;1.77;;
26750;SDS011;14345;48.272;25.926;2023-07-08T09:27:30;3.15;;;1.65;;
26750;SDS011;14345;48.272;25.926;2023-07-08T09:29:56;2.85;;;1.90;;
26750;SDS011;14345;48.272;25.926;2023-07-08T09:32:23;2.95;;;1.67;;
26750;SDS011;14345;48.272;25.926;2023-07-08T09:34:50;2.65;;;1.70;;
26750;SDS011;14345;48.272;25.926;2023-07-08T09:37:30;2.05;;;1.52;;
26750;SDS011;14345;48.272;25.926;2023-07-08T09:39:57;2.65;;;1.65;;
26750;SDS011;14345;48.272;25.926;2023-07-08T09:42:25;3.85;;;1.45;;
26750;SDS011;14345;48.272;25.926;2023-07-08T09:44:56;2.58;;;1.60;;
26750;SDS011;14345;48.272;25.926;2023-07-08T09:47:27;3.13;;;1.75;;
26750;SDS011;14345;48.272;25.926;2023-07-08T09:49:58;6.63;;;1.83;;
26750;SDS011;14345;48.272;25.926;2023-07-08T09:52:24;6.05;;;1.85;;
26750;SDS011;14345;48.272;25.926;2023-07-08T09:54:50;1.40;;;1.10;;
26750;SDS011;14345;48.272;25.926;2023-07-08T09:57:34;2.25;;;1.60;;
26750;SDS011;14345;48.272;25.926;2023-07-08T10:00:08;2.33;;;1.30;;
26750;SDS011;14345;48.272;25.926;2023-07-08T10:02:46;2.28;;;1.33;;
26750;SDS011;14345;48.272;25.926;2023-07-08T10:05:19;3.90;;;1.20;;
26750;SDS011;14345;48.272;25.926;2023-07-08T10:07:45;1.45;;;1.30;;
26750;SDS011;14345;48.272;25.926;2023-07-08T10:10:16;2.70;;;1.40;;
26750;SDS011;14345;48.272;25.926;2023-07-08T10:12:47;1.75;;;1.50;;
26750;SDS011;14345;48.272;25.926;2023-07-08T10:15:20;4.57;;;1.40;;
26750;SDS011;14345;48.272;25.926;2023-07-08T10:17:47;2.30;;;1.25;;
26750;SDS011;14345;48.272;25.926;2023-07-08T10:20:13;1.75;;;1.40;;
26750;SDS011;14345;48.272;25.926;2023-07-08T10:35:34;2.40;;;1.40;;
26750;SDS011;14345;48.272;25.926;2023-07-08T10:40:47;3.55;;;1.42;;
26750;SDS011;14345;48.272;25.926;2023-07-08T10:43:24;2.50;;;1.70;;
26750;SDS011;14345;48.272;25.926;2023-07-08T10:46:16;1.63;;;1.42;;
26750;SDS011;14345;48.272;25.926;2023-07-08T10:48:52;3.10;;;1.70;;
26750;SDS011;14345;48.272;25.926;2023-07-08T10:51:27;1.50;;;1.30;;
26750;SDS011;14345;48.272;25.926;2023-07-08T11:09:46;2.25;;;1.42;;
26750;SDS011;14345;48.272;25.926;2023-07-08T11:14:49;2.38;;;1.25;;
26750;SDS011;14345;48.272;25.926;2023-07-08T11:17:22;2.25;;;1.63;;
26750;SDS011;14345;48.272;25.926;2023-07-08T11:22:49;1.58;;;1.20;;
26750;SDS011;14345;48.272;25.926;2023-07-08T11:25:20;3.85;;;1.13;;
26750;SDS011;14345;48.272;25.926;2023-07-08T11:27:47;2.65;;;1.40;;
26750;SDS011;14345;48.272;25.926;2023-07-08T11:30:15;2.47;;;1.40;;
26750;SDS011;14345;48.272;25.926;2023-07-08T11:32:42;1.20;;;1.10;;
26750;SDS011;14345;48.272;25.926;2023-07-08T11:35:23;1.75;;;1.08;;
26750;SDS011;14345;48.272;25.926;2023-07-08T11:37:51;6.30;;;1.10;;
26750;SDS011;14345;48.272;25.926;2023-07-08T11:42:44;1.73;;;1.15;;
26750;SDS011;14345;48.272;25.926;2023-07-08T11:47:51;1.50;;;1.05;;
26750;SDS011;14345;48.272;25.926;2023-07-08T11:52:55;3.60;;;1.00;;
26750;SDS011;14345;48.272;25.926;2023-07-08T11:55:25;4.38;;;0.95;;
26750;SDS011;14345;48.272;25.926;2023-07-08T11:57:53;2.03;;;1.10;;
26750;SDS011;14345;48.272;25.926;2023-07-08T12:00:23;3.60;;;1.17;;
26750;SDS011;14345;48.272;25.926;2023-07-08T12:05:15;3.17;;;1.38;;
26750;SDS011;14345;48.272;25.926;2023-07-08T12:07:45;3.78;;;1.30;;
26750;SDS011;14345;48.272;25.926;2023-07-08T12:10:15;2.20;;;1.20;;
26750;SDS011;14345;48.272;25.926;2023-07-08T12:12:43;3.15;;;1.50;;
26750;SDS011;14345;48.272;25.926;2023-07-08T12:17:36;1.50;;;0.90;;
26750;SDS011;14345;48.272;25.926;2023-07-08T12:20:02;1.23;;;1.00;;
26750;SDS011;14345;48.272;25.926;2023-07-08T12:22:33;1.65;;;1.00;;
26750;SDS011;14345;48.272;25.926;2023-07-08T12:24:59;1.55;;;1.10;;
26750;SDS011;14345;48.272;25.926;2023-07-08T12:27:30;2.38;;;1.30;;
26750;SDS011;14345;48.272;25.926;2023-07-08T12:29:56;1.80;;;0.80;;
26750;SDS011;14345;48.272;25.926;2023-07-08T12:32:22;1.35;;;1.10;;
26750;SDS011;14345;48.272;25.926;2023-07-08T12:34:50;2.50;;;1.10;;
26750;SDS011;14345;48.272;25.926;2023-07-08T12:37:17;1.00;;;0.90;;
26750;SDS011;14345;48.272;25.926;2023-07-08T12:39:43;1.30;;;1.20;;
26750;SDS011;14345;48.272;25.926;2023-07-08T12:42:10;2.03;;;1.13;;
26750;SDS011;14345;48.272;25.926;2023-07-08T12:44:36;3.28;;;0.90;;
26750;SDS011;14345;48.272;25.926;2023-07-08T12:47:07;1.20;;;1.10;;
26750;SDS011;14345;48.272;25.926;2023-07-08T12:49:34;1.10;;;0.98;;
26750;SDS011;14345;48.272;25.926;2023-07-08T12:52:00;2.17;;;1.02;;
26750;SDS011;14345;48.272;25.926;2023-07-08T12:54:27;2.58;;;0.98;;
26750;SDS011;14345;48.272;25.926;2023-07-08T12:56:53;2.25;;;1.10;;
26750;SDS011;14345;48.272;25.926;2023-07-08T12:59:21;0.90;;;0.70;;
26750;SDS011;14345;48.272;25.926;2023-07-08T13:01:47;1.67;;;0.80;;
26750;SDS011;14345;48.272;25.926;2023-07-08T13:04:14;1.27;;;0.80;;
26750;SDS011;14345;48.272;25.926;2023-07-08T13:06:40;1.20;;;0.90;;
26750;SDS011;14345;48.272;25.926;2023-07-08T13:11:41;1.10;;;0.80;;
26750;SDS011;14345;48.272;25.926;2023-07-08T13:14:07;3.70;;;1.00;;
26750;SDS011;14345;48.272;25.926;2023-07-08T13:16:33;0.98;;;0.80;;
26750;SDS011;14345;48.272;25.926;2023-07-08T13:19:00;1.98;;;1.15;;
26750;SDS011;14345;48.272;25.926;2023-07-08T13:21:26;4.05;;;1.40;;
26750;SDS011;14345;48.272;25.926;2023-07-08T13:23:55;2.63;;;1.20;;
26750;SDS011;14345;48.272;25.926;2023-07-08T13:26:22;4.28;;;0.95;;
26750;SDS011;14345;48.272;25.926;2023-07-08T13:28:48;3.42;;;1.42;;
26750;SDS011;14345;48.272;25.926;2023-07-08T13:31:16;1.42;;;1.20;;
26750;SDS011;14345;48.272;25.926;2023-07-08T13:33:46;1.85;;;1.00;;
26750;SDS011;14345;48.272;25.926;2023-07-08T13:36:13;1.40;;;0.98;;
26750;SDS011;14345;48.272;25.926;2023-07-08T13:38:40;2.65;;;1.02;;
26750;SDS011;14345;48.272;25.926;2023-07-08T13:41:07;1.27;;;0.90;;
26750;SDS011;14345;48.272;25.926;2023-07-08T13:43:34;1.25;;;0.90;;
26750;SDS011;14345;48.272;25.926;2023-07-08T13:46:01;1.52;;;1.00;;
26750;SDS011;14345;48.272;25.926;2023-07-08T13:48:30;2.05;;;1.10;;
26750;SDS011;14345;48.272;25.926;2023-07-08T13:56:01;1.75;;;1.05;;
26750;SDS011;14345;48.272;25.926;2023-07-08T13:58:28;6.78;;;0.95;;
26750;SDS011;14345;48.272;25.926;2023-07-08T14:00:55;1.70;;;0.90;;
26750;SDS011;14345;48.272;25.926;2023-07-08T14:03:21;1.48;;;1.00;;
26750;SDS011;14345;48.272;25.926;2023-07-08T14:05:47;2.97;;;1.30;;
26750;SDS011;14345;48.272;25.926;2023-07-08T14:08:13;2.17;;;1.10;;
26750;SDS011;14345;48.272;25.926;2023-07-08T14:10:40;6.05;;;1.38;;
26750;SDS011;14345;48.272;25.926;2023-07-08T14:13:06;2.90;;;1.13;;
26750;SDS011;14345;48.272;25.926;2023-07-08T14:15:32;2.42;;;1.33;;
26750;SDS011;14345;48.272;25.926;2023-07-08T14:18:01;1.88;;;1.10;;
26750;SDS011;14345;48.272;25.926;2023-07-08T14:20:28;2.00;;;1.30;;
26750;SDS011;14345;48.272;25.926;2023-07-08T14:22:54;1.75;;;1.08;;
26750;SDS011;14345;48.272;25.926;2023-07-08T14:25:21;1.85;;;1.05;;
26750;SDS011;14345;48.272;25.926;2023-07-08T14:27:48;1.77;;;0.88;;
26750;SDS011;14345;48.272;25.926;2023-07-08T14:30:15;1.88;;;1.00;;
26750;SDS011;14345;48.272;25.926;2023-07-08T14:32:41;0.98;;;0.88;;
26750;SDS011;14345;48.272;25.926;2023-07-08T14:37:39;1.70;;;1.00;;
26750;SDS011;14345;48.272;25.926;2023-07-08T14:40:25;4.32;;;1.10;;
26750;SDS011;14345;48.272;25.926;2023-07-08T14:42:53;1.33;;;0.98;;
26750;SDS011;14345;48.272;25.926;2023-07-08T14:45:21;5.13;;;0.95;;
26750;SDS011;14345;48.272;25.926;2023-07-08T14:47:47;2.63;;;1.10;;
26750;SDS011;14345;48.272;25.926;2023-07-08T14:50:13;4.45;;;1.80;;
26750;SDS011;14345;48.272;25.926;2023-07-08T14:52:40;6.15;;;1.83;;
26750;SDS011;14345;48.272;25.926;2023-07-08T14:55:07;1.55;;;1.10;;
26750;SDS011;14345;48.272;25.926;2023-07-08T14:57:37;2.55;;;1.50;;
26750;SDS011;14345;48.272;25.926;2023-07-08T15:00:05;2.05;;;1.20;;
26750;SDS011;14345;48.272;25.926;2023-07-08T15:02:32;4.05;;;1.17;;
26750;SDS011;14345;48.272;25.926;2023-07-08T15:05:00;1.50;;;0.90;;
26750;SDS011;14345;48.272;25.926;2023-07-08T15:07:26;2.42;;;1.10;;
26750;SDS011;14345;48.272;25.926;2023-07-08T15:09:52;2.58;;;0.82;;
26750;SDS011;14345;48.272;25.926;2023-07-08T15:12:18;1.05;;;0.80;;
26750;SDS011;14345;48.272;25.926;2023-07-08T15:14:44;0.80;;;0.80;;
26750;SDS011;14345;48.272;25.926;2023-07-08T15:17:12;1.00;;;0.90;;
26750;SDS011;14345;48.272;25.926;2023-07-08T15:19:40;1.10;;;0.73;;
26750;SDS011;14345;48.272;25.926;2023-07-08T15:22:06;2.78;;;0.98;;
26750;SDS011;14345;48.272;25.926;2023-07-08T15:24:32;1.52;;;1.10;;
26750;SDS011;14345;48.272;25.926;2023-07-08T15:26:58;1.75;;;1.10;;
26750;SDS011;14345;48.272;25.926;2023-07-08T15:29:24;1.50;;;1.00;;
26750;SDS011;14345;48.272;25.926;2023-07-08T15:31:51;1.10;;;1.00;;
26750;SDS011;14345;48.272;25.926;2023-07-08T15:34:18;3.47;;;0.85;;
26750;SDS011;14345;48.272;25.926;2023-07-08T15:36:45;1.10;;;0.90;;
26750;SDS011;14345;48.272;25.926;2023-07-08T15:39:11;1.95;;;1.33;;
26750;SDS011;14345;48.272;25.926;2023-07-08T15:41:40;3.15;;;1.10;;
26750;SDS011;14345;48.272;25.926;2023-07-08T15:44:08;5.47;;;1.23;;